Time;durP1;ratioP1;P1;durP2;ratioP2;P2;SDS_P1;SDS_P2;PMS_P1;PMS_P2;Temp;Humidity;BMP_temperature;BMP_pressure;BME280_temperature;BME280_humidity;BME280_pressure;Samples;Min_cycle;Max_cycle;Signal;HPM_P1;HPM_P2
2021/04/06 00:01:35;;;;;;;7.67;5.13;;;;;;;;;;766384;180;913853;-66
2021/04/06 00:04:01;;;;;;;9.87;4.30;;;;;;;;;;771426;180;1022178;-66
2021/04/06 00:06:27;;;;;;;5.60;3.90;;;;;;;;;;771464;180;916548;-65
2021/04/06 00:08:53;;;;;;;7.18;4.60;;;;;;;;;;761799;180;918082;-66
2021/04/06 00:11:18;;;;;;;4.90;3.57;;;;;;;;;;775823;179;918851;-65
2021/04/06 00:13:44;;;;;;;5.30;3.67;;;;;;;;;;770002;180;919508;-66
2021/04/06 00:16:10;;;;;;;8.33;4.17;;;;;;;;;;765674;180;919151;-66
2021/04/06 00:18:36;;;;;;;5.83;4.27;;;;;;;;;;762567;180;919481;-64
2021/04/06 00:21:02;;;;;;;8.77;5.10;;;;;;;;;;776475;180;918991;-65
2021/04/06 00:23:28;;;;;;;5.90;3.90;;;;;;;;;;762603;180;917650;-65
2021/04/06 00:25:53;;;;;;;7.13;3.93;;;;;;;;;;763332;181;919351;-66
2021/04/06 00:28:20;;;;;;;8.90;4.87;;;;;;;;;;771851;180;919351;-66
2021/04/06 00:30:46;;;;;;;6.40;4.50;;;;;;;;;;768734;180;919911;-66
2021/04/06 00:33:12;;;;;;;6.60;4.43;;;;;;;;;;765666;180;918825;-66
2021/04/06 00:35:38;;;;;;;6.40;4.30;;;;;;;;;;771148;180;918375;-66
2021/04/06 00:38:05;;;;;;;5.47;4.10;;;;;;;;;;768110;180;921213;-66
2021/04/06 00:40:31;;;;;;;4.12;3.72;;;;;;;;;;763763;180;918980;-66
2021/04/06 00:42:57;;;;;;;6.47;5.10;;;;;;;;;;762053;180;919677;-65
2021/04/06 00:45:23;;;;;;;7.87;4.33;;;;;;;;;;766596;180;1015398;-66
2021/04/06 00:47:55;;;;;;;6.17;4.60;;;;;;;;;;767797;180;919319;-66
2021/04/06 00:50:21;;;;;;;11.43;4.27;;;;;;;;;;761804;181;1020913;-67
2021/04/06 00:52:46;;;;;;;7.97;3.60;;;;;;;;;;768731;180;919656;-66
2021/04/06 00:55:17;;;;;;;4.70;3.93;;;;;;;;;;763417;180;921187;-66
2021/04/06 00:57:43;;;;;;;5.40;4.40;;;;;;;;;;766452;180;919471;-66
2021/04/06 01:00:13;;;;;;;6.90;4.27;;;;;;;;;;763376;181;919058;-66
2021/04/06 01:02:38;;;;;;;14.80;5.67;;;;;;;;;;770360;180;919642;-65
2021/04/06 01:05:04;;;;;;;5.20;3.83;;;;;;;;;;755558;180;2692997;-66
2021/04/06 01:07:30;;;;;;;9.87;4.90;;;;;;;;;;769206;180;920692;-65
2021/04/06 01:09:56;;;;;;;6.20;4.75;;;;;;;;;;772612;180;907575;-66
2021/04/06 01:12:22;;;;;;;5.00;3.63;;;;;;;;;;766913;180;919279;-67
2021/04/06 01:14:48;;;;;;;9.35;4.60;;;;;;;;;;766022;180;916594;-66
2021/04/06 01:17:14;;;;;;;4.70;3.60;;;;;;;;;;760000;177;941976;-66
2021/04/06 01:19:40;;;;;;;5.70;3.87;;;;;;;;;;772851;180;917651;-66
2021/04/06 01:22:05;;;;;;;8.70;4.53;;;;;;;;;;765079;180;919747;-66
2021/04/06 01:24:31;;;;;;;6.23;4.87;;;;;;;;;;769339;180;919222;-65
2021/04/06 01:26:57;;;;;;;11.63;4.93;;;;;;;;;;769378;180;919218;-66
2021/04/06 01:29:23;;;;;;;6.10;4.10;;;;;;;;;;767956;180;918624;-66
2021/04/06 01:31:49;;;;;;;7.30;3.50;;;;;;;;;;760614;180;1012429;-66
2021/04/06 01:34:14;;;;;;;5.83;4.20;;;;;;;;;;771850;180;916839;-65
2021/04/06 01:36:40;;;;;;;11.10;4.50;;;;;;;;;;765263;180;914447;-66
2021/04/06 01:39:06;;;;;;;4.83;3.77;;;;;;;;;;766675;180;934766;-67
2021/04/06 01:41:32;;;;;;;7.62;4.32;;;;;;;;;;767984;180;912173;-64
2021/04/06 01:43:58;;;;;;;5.10;3.80;;;;;;;;;;762569;183;916688;-67
2021/04/06 01:46:36;;;;;;;7.83;4.23;;;;;;;;;;763175;180;915987;-66
2021/04/06 01:48:55;;;;;;;5.27;3.93;;;;;;;;;;770043;180;913804;-65
2021/04/06 01:51:25;;;;;;;5.90;4.20;;;;;;;;;;771528;180;912051;-67
2021/04/06 01:53:51;;;;;;;7.03;4.70;;;;;;;;;;768227;180;1479366;-67
2021/04/06 01:56:22;;;;;;;8.90;4.27;;;;;;;;;;766480;180;915655;-66
2021/04/06 01:58:49;;;;;;;8.45;4.55;;;;;;;;;;766065;180;919947;-67
2021/04/06 02:01:19;;;;;;;13.33;6.33;;;;;;;;;;768895;180;915586;-66
2021/04/06 02:03:48;;;;;;;8.00;3.73;;;;;;;;;;768351;180;915018;-67
2021/04/06 02:06:09;;;;;;;6.37;4.03;;;;;;;;;;765358;180;1002387;-67
2021/04/06 02:08:38;;;;;;;6.93;3.93;;;;;;;;;;766143;180;920358;-64
2021/04/06 02:11:01;;;;;;;9.27;4.10;;;;;;;;;;766422;182;915357;-67
2021/04/06 02:13:27;;;;;;;6.00;3.50;;;;;;;;;;754987;180;2842513;-66
2021/04/06 02:15:53;;;;;;;6.50;4.20;;;;;;;;;;766378;180;963023;-67
2021/04/06 02:18:19;;;;;;;10.63;4.10;;;;;;;;;;770520;179;915657;-67
2021/04/06 02:20:45;;;;;;;6.40;3.80;;;;;;;;;;767004;180;918875;-68
2021/04/06 02:23:11;;;;;;;4.72;3.50;;;;;;;;;;766914;180;917192;-68
2021/04/06 02:25:37;;;;;;;3.60;2.87;;;;;;;;;;774255;180;917218;-68
2021/04/06 02:28:03;;;;;;;11.90;4.50;;;;;;;;;;762989;180;919184;-67
2021/04/06 02:30:30;;;;;;;7.77;3.50;;;;;;;;;;762137;180;922960;-66
2021/04/06 02:33:01;;;;;;;11.52;3.60;;;;;;;;;;770596;180;920273;-66
2021/04/06 02:35:26;;;;;;;4.93;3.50;;;;;;;;;;765894;183;917105;-67
2021/04/06 02:37:52;;;;;;;6.83;3.97;;;;;;;;;;770084;180;911289;-66
2021/04/06 02:40:20;;;;;;;7.20;4.07;;;;;;;;;;764161;180;1536734;-67
2021/04/06 02:42:48;;;;;;;7.73;3.23;;;;;;;;;;775356;179;920145;-67
2021/04/06 02:45:15;;;;;;;9.05;3.40;;;;;;;;;;766641;180;916545;-68
2021/04/06 02:47:48;;;;;;;7.87;3.43;;;;;;;;;;768175;180;933881;-68
2021/04/06 02:50:15;;;;;;;7.33;3.60;;;;;;;;;;763616;180;919314;-68
2021/04/06 02:52:41;;;;;;;7.27;3.70;;;;;;;;;;772140;180;991606;-69
2021/04/06 02:55:07;;;;;;;4.10;3.00;;;;;;;;;;768091;178;919874;-69
2021/04/06 02:57:33;;;;;;;5.70;3.20;;;;;;;;;;766130;180;923186;-67
2021/04/06 02:59:59;;;;;;;5.80;3.22;;;;;;;;;;768599;180;1313637;-66
2021/04/06 03:02:25;;;;;;;7.13;3.77;;;;;;;;;;766436;181;918828;-68
2021/04/06 03:04:51;;;;;;;4.67;2.37;;;;;;;;;;765287;180;923078;-68
2021/04/06 03:07:17;;;;;;;16.63;3.13;;;;;;;;;;763795;180;918737;-68
2021/04/06 03:09:51;;;;;;;6.63;3.23;;;;;;;;;;764303;180;918828;-68
2021/04/06 03:12:17;;;;;;;5.80;3.67;;;;;;;;;;770297;180;919584;-69
2021/04/06 03:14:43;;;;;;;7.20;3.17;;;;;;;;;;764929;180;919954;-68
2021/04/06 03:17:09;;;;;;;12.20;3.40;;;;;;;;;;767741;180;914401;-69
2021/04/06 03:19:35;;;;;;;5.30;3.27;;;;;;;;;;765763;182;913626;-68
2021/04/06 03:22:01;;;;;;;7.03;3.00;;;;;;;;;;763061;180;1193885;-69
2021/04/06 03:24:28;;;;;;;5.10;3.20;;;;;;;;;;763178;180;912224;-69
2021/04/06 03:26:53;;;;;;;7.40;2.47;;;;;;;;;;770147;180;914874;-69
2021/04/06 03:29:19;;;;;;;8.37;3.10;;;;;;;;;;770649;180;912382;-68
2021/04/06 03:31:45;;;;;;;6.80;3.13;;;;;;;;;;765016;180;909357;-69
2021/04/06 03:34:11;;;;;;;7.50;3.47;;;;;;;;;;772197;180;915497;-69
2021/04/06 03:36:37;;;;;;;5.23;3.90;;;;;;;;;;766481;180;920163;-69
2021/04/06 03:39:03;;;;;;;3.20;2.50;;;;;;;;;;766763;180;921271;-69
2021/04/06 03:41:29;;;;;;;5.80;4.80;;;;;;;;;;753987;180;3727598;-68
2021/04/06 03:44:01;;;;;;;7.57;4.00;;;;;;;;;;767841;182;915357;-70
2021/04/06 03:46:27;;;;;;;6.33;3.27;;;;;;;;;;764121;180;943281;-69
2021/04/06 03:48:53;;;;;;;7.47;3.77;;;;;;;;;;769032;180;914378;-70
2021/04/06 03:51:23;;;;;;;7.53;3.60;;;;;;;;;;770633;180;915594;-71
2021/04/06 03:53:50;;;;;;;6.20;3.70;;;;;;;;;;769065;180;914444;-69
2021/04/06 03:56:15;;;;;;;15.33;4.50;;;;;;;;;;767311;180;915368;-72
2021/04/06 03:58:44;;;;;;;5.60;2.90;;;;;;;;;;765387;180;916743;-71
2021/04/06 04:01:08;;;;;;;7.83;3.80;;;;;;;;;;772720;180;913096;-71
2021/04/06 04:03:33;;;;;;;10.40;4.43;;;;;;;;;;759547;180;915707;-71
2021/04/06 04:05:59;;;;;;;6.00;4.30;;;;;;;;;;764282;180;917413;-71
2021/04/06 04:08:25;;;;;;;8.90;3.90;;;;;;;;;;772608;180;918366;-72
2021/04/06 04:10:51;;;;;;;7.40;3.73;;;;;;;;;;766703;180;1018792;-71
2021/04/06 04:13:17;;;;;;;12.23;4.53;;;;;;;;;;763767;180;916310;-73
2021/04/06 04:15:43;;;;;;;7.33;5.60;;;;;;;;;;769734;180;913093;-72
2021/04/06 04:18:08;;;;;;;12.63;3.97;;;;;;;;;;762500;180;915282;-74
2021/04/06 04:20:34;;;;;;;10.48;5.90;;;;;;;;;;765173;180;919557;-72
2021/04/06 04:23:00;;;;;;;8.60;4.63;;;;;;;;;;761140;180;918880;-72
2021/04/06 04:25:26;;;;;;;8.50;4.83;;;;;;;;;;770427;179;919101;-72
2021/04/06 04:27:52;;;;;;;7.40;5.20;;;;;;;;;;762569;179;983111;-72
2021/04/06 04:30:51;;;;;;;8.43;5.40;;;;;;;;;;766223;180;918139;-71
2021/04/06 04:32:58;;;;;;;8.30;6.67;;;;;;;;;;759622;180;918620;-71
2021/04/06 04:35:24;;;;;;;8.80;3.85;;;;;;;;;;775683;180;904710;-73
2021/04/06 04:37:50;;;;;;;7.60;4.87;;;;;;;;;;761715;180;918860;-72
2021/04/06 04:40:16;;;;;;;7.80;4.90;;;;;;;;;;767173;180;918701;-72
2021/04/06 04:42:42;;;;;;;8.10;5.57;;;;;;;;;;774636;179;913587;-72
2021/04/06 04:45:08;;;;;;;6.97;5.25;;;;;;;;;;766428;180;918483;-71
2021/04/06 04:47:34;;;;;;;11.30;5.07;;;;;;;;;;769389;180;983499;-72
2021/04/06 04:50:01;;;;;;;11.30;5.35;;;;;;;;;;766790;179;2079611;-71
2021/04/06 04:52:27;;;;;;;9.87;5.40;;;;;;;;;;769137;181;912742;-71
2021/04/06 04:54:52;;;;;;;6.93;4.40;;;;;;;;;;767202;180;919383;-71
2021/04/06 04:57:18;;;;;;;7.13;5.80;;;;;;;;;;765492;181;911074;-71
2021/04/06 04:59:44;;;;;;;8.40;5.50;;;;;;;;;;767089;180;905345;-72
2021/04/06 05:02:10;;;;;;;11.70;5.90;;;;;;;;;;768765;180;618256;-71
2021/04/06 05:04:36;;;;;;;7.77;6.43;;;;;;;;;;764742;180;656282;-71
2021/04/06 05:07:02;;;;;;;9.80;5.47;;;;;;;;;;773720;180;626286;-72
2021/04/06 05:09:28;;;;;;;7.50;4.67;;;;;;;;;;768401;180;641378;-72
2021/04/06 05:11:54;;;;;;;11.27;5.30;;;;;;;;;;771287;180;640166;-72
2021/04/06 05:14:20;;;;;;;13.53;4.93;;;;;;;;;;771882;180;634303;-71
2021/04/06 05:16:46;;;;;;;7.40;4.97;;;;;;;;;;770997;180;629790;-73
2021/04/06 05:19:11;;;;;;;7.07;5.23;;;;;;;;;;768596;180;625106;-72
2021/04/06 05:21:37;;;;;;;7.67;5.03;;;;;;;;;;768257;180;628579;-71
2021/04/06 05:24:03;;;;;;;9.97;5.20;;;;;;;;;;771483;180;621044;-71
2021/04/06 05:26:29;;;;;;;15.53;6.07;;;;;;;;;;767486;180;633623;-72
2021/04/06 05:28:55;;;;;;;7.37;4.47;;;;;;;;;;769964;179;625021;-71
2021/04/06 05:31:21;;;;;;;6.63;4.80;;;;;;;;;;775291;180;628320;-73
2021/04/06 05:33:48;;;;;;;7.60;4.93;;;;;;;;;;771119;180;639530;-71
2021/04/06 05:36:14;;;;;;;16.33;5.83;;;;;;;;;;752294;180;3566647;-71
2021/04/06 05:38:39;;;;;;;12.13;5.70;;;;;;;;;;775050;180;633980;-71
2021/04/06 05:41:05;;;;;;;8.33;5.47;;;;;;;;;;768434;180;631317;-71
2021/04/06 05:43:31;;;;;;;6.77;6.07;;;;;;;;;;772555;180;631042;-71
2021/04/06 05:45:57;;;;;;;10.03;6.00;;;;;;;;;;767699;180;620747;-72
2021/04/06 05:48:23;;;;;;;10.57;4.67;;;;;;;;;;770110;181;613364;-71
2021/04/06 05:50:49;;;;;;;7.90;4.90;;;;;;;;;;765602;180;1558535;-72
2021/04/06 05:53:14;;;;;;;10.50;4.53;;;;;;;;;;770555;178;638890;-70
2021/04/06 05:55:40;;;;;;;8.23;4.50;;;;;;;;;;776439;180;634689;-72
2021/04/06 05:58:06;;;;;;;8.93;4.70;;;;;;;;;;769433;180;1255850;-71
2021/04/06 06:00:32;;;;;;;11.55;5.05;;;;;;;;;;769421;180;627958;-71
2021/04/06 06:02:58;;;;;;;6.57;4.43;;;;;;;;;;775829;180;636866;-70
2021/04/06 06:05:24;;;;;;;6.10;4.33;;;;;;;;;;771859;180;635384;-72
2021/04/06 06:07:50;;;;;;;10.00;4.90;;;;;;;;;;771133;180;628558;-72
2021/04/06 06:10:21;;;;;;;10.03;4.30;;;;;;;;;;775526;180;631103;-73
2021/04/06 06:12:47;;;;;;;6.30;4.17;;;;;;;;;;768069;182;629568;-71
2021/04/06 06:15:13;;;;;;;13.07;6.33;;;;;;;;;;774124;180;646959;-72
2021/04/06 06:17:39;;;;;;;14.80;5.63;;;;;;;;;;768785;180;629113;-71
2021/04/06 06:20:05;;;;;;;9.57;4.67;;;;;;;;;;772091;180;625183;-72
2021/04/06 06:22:31;;;;;;;10.13;5.27;;;;;;;;;;765002;180;630905;-70
2021/04/06 06:25:00;;;;;;;7.30;5.00;;;;;;;;;;770899;180;708464;-68
2021/04/06 06:27:34;;;;;;;9.80;4.87;;;;;;;;;;765511;180;750737;-66
2021/04/06 06:29:53;;;;;;;11.60;6.37;;;;;;;;;;765276;183;624807;-66
2021/04/06 06:32:22;;;;;;;8.57;5.10;;;;;;;;;;767726;180;645902;-66
2021/04/06 06:34:48;;;;;;;10.87;6.77;;;;;;;;;;769945;180;688296;-68
2021/04/06 06:37:13;;;;;;;10.03;5.47;;;;;;;;;;773339;180;630573;-67
2021/04/06 06:39:39;;;;;;;12.80;5.10;;;;;;;;;;767089;181;643335;-70
2021/04/06 06:42:07;;;;;;;10.27;5.18;;;;;;;;;;770429;180;623697;-70
2021/04/06 06:44:33;;;;;;;11.00;5.40;;;;;;;;;;767284;180;720741;-69
2021/04/06 06:47:01;;;;;;;7.17;5.33;;;;;;;;;;760103;184;638311;-69
2021/04/06 06:49:33;;;;;;;6.27;4.53;;;;;;;;;;750476;184;638308;-69
2021/04/06 06:51:55;;;;;;;11.60;4.73;;;;;;;;;;750255;184;638598;-70
2021/04/06 06:54:21;;;;;;;9.97;5.37;;;;;;;;;;755902;184;639115;-70
2021/04/06 06:56:46;;;;;;;12.50;4.30;;;;;;;;;;761292;180;634493;-69
2021/04/06 06:59:12;;;;;;;12.30;5.50;;;;;;;;;;768542;180;638456;-68
2021/04/06 07:01:38;;;;;;;7.00;4.43;;;;;;;;;;773041;180;631931;-69
2021/04/06 07:04:07;;;;;;;7.87;4.80;;;;;;;;;;762093;180;1039430;-70
2021/04/06 07:06:33;;;;;;;15.80;5.00;;;;;;;;;;772593;180;637092;-71
2021/04/06 07:08:59;;;;;;;6.10;3.73;;;;;;;;;;769910;180;625507;-70
2021/04/06 07:11:25;;;;;;;8.90;4.63;;;;;;;;;;778676;180;629139;-71
2021/04/06 07:13:50;;;;;;;5.63;3.27;;;;;;;;;;774133;180;631671;-68
2021/04/06 07:16:16;;;;;;;9.37;3.97;;;;;;;;;;772359;180;653582;-68
2021/04/06 07:18:42;;;;;;;8.77;4.27;;;;;;;;;;776193;180;615429;-68
2021/04/06 07:21:08;;;;;;;4.23;3.53;;;;;;;;;;770089;180;633888;-67
2021/04/06 07:23:35;;;;;;;8.23;4.33;;;;;;;;;;768218;180;628576;-67
2021/04/06 07:26:00;;;;;;;6.20;3.40;;;;;;;;;;770472;180;641750;-68
2021/04/06 07:28:25;;;;;;;5.73;4.40;;;;;;;;;;766488;181;620437;-69
2021/04/06 07:30:51;;;;;;;6.10;3.73;;;;;;;;;;773900;180;623708;-69
2021/04/06 07:33:17;;;;;;;9.37;3.57;;;;;;;;;;765649;180;651312;-70
2021/04/06 07:35:43;;;;;;;5.27;3.53;;;;;;;;;;773796;180;623342;-69
2021/04/06 07:38:09;;;;;;;5.33;3.93;;;;;;;;;;769474;180;635771;-69
2021/04/06 07:40:35;;;;;;;6.13;3.50;;;;;;;;;;770399;180;624626;-68
2021/04/06 07:43:01;;;;;;;7.20;3.60;;;;;;;;;;772272;180;614541;-67
2021/04/06 07:45:41;;;;;;;6.30;3.70;;;;;;;;;;772054;180;631123;-67
2021/04/06 07:48:08;;;;;;;6.97;3.30;;;;;;;;;;770260;180;628744;-66
2021/04/06 07:50:36;;;;;;;5.57;3.53;;;;;;;;;;767302;180;626765;-67
2021/04/06 07:53:08;;;;;;;15.13;3.80;;;;;;;;;;773968;180;630052;-68
2021/04/06 07:55:40;;;;;;;7.87;4.37;;;;;;;;;;767426;180;628349;-67
2021/04/06 07:58:05;;;;;;;10.00;3.90;;;;;;;;;;772918;180;631447;-67
2021/04/06 08:00:37;;;;;;;6.17;4.33;;;;;;;;;;770700;180;637824;-69
2021/04/06 08:03:03;;;;;;;7.20;4.20;;;;;;;;;;770391;180;630155;-68
2021/04/06 08:05:30;;;;;;;6.63;3.20;;;;;;;;;;770700;180;622992;-67
2021/04/06 08:07:56;;;;;;;4.70;3.40;;;;;;;;;;767691;181;617557;-68
2021/04/06 08:10:37;;;;;;;5.70;3.57;;;;;;;;;;767483;181;627075;-68
2021/04/06 08:13:03;;;;;;;4.80;2.40;;;;;;;;;;767187;180;629264;-69
2021/04/06 08:15:29;;;;;;;4.90;2.97;;;;;;;;;;773413;180;633183;-69
2021/04/06 08:17:58;;;;;;;3.83;2.80;;;;;;;;;;773643;179;632965;-70
2021/04/06 08:20:23;;;;;;;8.50;3.47;;;;;;;;;;770187;180;622979;-69
2021/04/06 08:22:51;;;;;;;4.00;3.03;;;;;;;;;;773734;180;614685;-69
2021/04/06 08:25:33;;;;;;;3.93;3.20;;;;;;;;;;772321;182;636730;-68
2021/04/06 08:27:59;;;;;;;7.60;3.40;;;;;;;;;;768114;183;659770;-68
2021/04/06 08:30:24;;;;;;;5.23;3.73;;;;;;;;;;774310;180;774974;-68
2021/04/06 08:33:11;;;;;;;8.00;3.30;;;;;;;;;;768958;180;627862;-68
2021/04/06 08:35:43;;;;;;;5.60;3.53;;;;;;;;;;768129;181;627556;-69
2021/04/06 08:38:14;;;;;;;8.80;3.87;;;;;;;;;;774635;180;629275;-69
2021/04/06 08:40:42;;;;;;;8.00;3.00;;;;;;;;;;770261;179;629850;-69
2021/04/06 08:43:08;;;;;;;5.60;3.27;;;;;;;;;;775840;180;634107;-71
2021/04/06 08:45:34;;;;;;;8.33;2.80;;;;;;;;;;769362;180;662725;-70
2021/04/06 08:48:00;;;;;;;4.83;2.40;;;;;;;;;;775270;180;701840;-70
2021/04/06 08:50:32;;;;;;;5.97;3.13;;;;;;;;;;773527;180;623934;-71
2021/04/06 08:52:57;;;;;;;8.37;3.30;;;;;;;;;;774049;180;633352;-71
2021/04/06 08:55:23;;;;;;;4.57;2.65;;;;;;;;;;775356;180;646585;-71
2021/04/06 08:57:49;;;;;;;4.70;3.30;;;;;;;;;;769422;180;613821;-70
2021/04/06 09:00:16;;;;;;;6.10;3.07;;;;;;;;;;767074;180;628415;-69
2021/04/06 09:02:41;;;;;;;5.87;3.00;;;;;;;;;;768254;180;631001;-70
2021/04/06 09:05:08;;;;;;;6.23;2.53;;;;;;;;;;773402;180;623556;-69
2021/04/06 09:07:33;;;;;;;3.57;2.00;;;;;;;;;;768698;180;626879;-70
2021/04/06 09:09:59;;;;;;;4.57;2.50;;;;;;;;;;769614;180;629982;-71
2021/04/06 09:12:31;;;;;;;3.53;2.30;;;;;;;;;;769277;180;627462;-72
2021/04/06 09:14:57;;;;;;;5.50;2.90;;;;;;;;;;772770;180;622051;-70
2021/04/06 09:17:26;;;;;;;6.00;2.73;;;;;;;;;;767728;180;1181021;-71
2021/04/06 09:19:51;;;;;;;3.83;2.90;;;;;;;;;;769201;180;631920;-72
2021/04/06 09:22:17;;;;;;;5.03;2.90;;;;;;;;;;769445;180;626390;-74
2021/04/06 09:24:45;;;;;;;6.20;3.40;;;;;;;;;;769644;180;637126;-76
2021/04/06 09:27:09;;;;;;;5.87;3.70;;;;;;;;;;769369;180;635537;-76
2021/04/06 09:29:36;;;;;;;4.43;2.80;;;;;;;;;;773892;179;631107;-75
2021/04/06 09:32:03;;;;;;;9.90;2.73;;;;;;;;;;768709;183;636514;-74
2021/04/06 09:34:28;;;;;;;8.63;3.23;;;;;;;;;;769742;180;668619;-73
2021/04/06 09:36:55;;;;;;;7.93;2.80;;;;;;;;;;771376;180;749283;-74
2021/04/06 09:39:21;;;;;;;4.87;2.67;;;;;;;;;;771090;180;629049;-74
2021/04/06 09:41:47;;;;;;;5.03;2.87;;;;;;;;;;772786;180;624423;-75
2021/04/06 09:44:13;;;;;;;6.83;3.37;;;;;;;;;;767807;180;629467;-74
2021/04/06 09:46:41;;;;;;;3.03;2.10;;;;;;;;;;774536;180;630878;-76
2021/04/06 09:49:07;;;;;;;4.53;2.53;;;;;;;;;;771073;180;633063;-75
2021/04/06 09:51:33;;;;;;;3.80;2.20;;;;;;;;;;771762;180;634620;-74
2021/04/06 09:53:59;;;;;;;3.80;2.17;;;;;;;;;;767129;180;655148;-76
2021/04/06 09:56:25;;;;;;;5.17;2.13;;;;;;;;;;771899;181;613658;-75
2021/04/06 09:58:52;;;;;;;7.30;2.00;;;;;;;;;;768659;180;635536;-75
2021/04/06 10:01:17;;;;;;;13.62;2.53;;;;;;;;;;768690;180;1571938;-77
2021/04/06 10:03:45;;;;;;;3.40;1.90;;;;;;;;;;773513;180;638926;-75
2021/04/06 10:06:13;;;;;;;7.53;2.57;;;;;;;;;;763049;179;1232287;-75
2021/04/06 10:08:37;;;;;;;2.80;2.03;;;;;;;;;;765144;178;918775;-73
2021/04/06 10:11:03;;;;;;;5.00;2.07;;;;;;;;;;767061;180;916244;-72
2021/04/06 10:13:30;;;;;;;3.43;1.73;;;;;;;;;;768301;180;916838;-73
2021/04/06 10:16:00;;;;;;;5.40;1.93;;;;;;;;;;763282;180;920553;-73
2021/04/06 10:18:26;;;;;;;9.50;2.60;;;;;;;;;;765833;180;1026706;-73
2021/04/06 10:20:52;;;;;;;5.97;2.70;;;;;;;;;;767141;180;927484;-73
2021/04/06 10:23:24;;;;;;;7.53;2.50;;;;;;;;;;764861;180;918849;-72
2021/04/06 10:25:50;;;;;;;3.55;2.10;;;;;;;;;;766041;180;989126;-73
2021/04/06 10:28:19;;;;;;;2.23;1.50;;;;;;;;;;766699;180;815483;-74
2021/04/06 10:30:45;;;;;;;5.53;2.50;;;;;;;;;;767642;180;920111;-71
2021/04/06 10:33:12;;;;;;;11.00;2.65;;;;;;;;;;764980;180;919297;-73
2021/04/06 10:35:38;;;;;;;6.43;1.93;;;;;;;;;;761494;180;1035550;-73
2021/04/06 10:38:04;;;;;;;3.60;2.40;;;;;;;;;;769692;180;940062;-72
2021/04/06 10:40:30;;;;;;;5.10;2.40;;;;;;;;;;768680;179;917574;-74
2021/04/06 10:42:57;;;;;;;2.50;1.60;;;;;;;;;;767023;180;918318;-71
2021/04/06 10:45:23;;;;;;;4.30;2.87;;;;;;;;;;768826;180;1245234;-73
2021/04/06 10:47:50;;;;;;;6.00;3.20;;;;;;;;;;773761;180;922345;-73
2021/04/06 10:50:15;;;;;;;8.90;2.50;;;;;;;;;;765651;180;925203;-72
2021/04/06 10:52:41;;;;;;;4.60;2.03;;;;;;;;;;763558;180;1021330;-73
2021/04/06 10:55:07;;;;;;;4.47;2.47;;;;;;;;;;777456;180;625563;-74
2021/04/06 10:57:33;;;;;;;3.33;2.10;;;;;;;;;;769493;180;627394;-73
2021/04/06 11:00:15;;;;;;;6.43;2.30;;;;;;;;;;769555;180;650827;-73
2021/04/06 11:02:41;;;;;;;5.60;2.20;;;;;;;;;;764556;180;631659;-73
2021/04/06 11:05:07;;;;;;;5.03;1.80;;;;;;;;;;773385;180;918930;-72
2021/04/06 11:07:33;;;;;;;9.23;4.40;;;;;;;;;;769438;180;907172;-73
2021/04/06 11:10:07;;;;;;;3.73;2.10;;;;;;;;;;769142;180;919427;-73
2021/04/06 11:12:33;;;;;;;10.40;2.97;;;;;;;;;;769687;180;944549;-71
2021/04/06 11:14:59;;;;;;;4.17;2.20;;;;;;;;;;770104;180;1193481;-72
2021/04/06 11:17:25;;;;;;;6.47;2.67;;;;;;;;;;762931;180;1009611;-72
2021/04/06 11:19:51;;;;;;;4.07;2.35;;;;;;;;;;765971;180;918779;-73
2021/04/06 11:22:16;;;;;;;7.37;2.60;;;;;;;;;;768071;180;918334;-71
2021/04/06 11:24:42;;;;;;;5.60;2.63;;;;;;;;;;763629;179;919463;-73
2021/04/06 11:27:09;;;;;;;5.70;2.30;;;;;;;;;;763000;180;919276;-72
2021/04/06 11:29:34;;;;;;;4.03;2.23;;;;;;;;;;764724;180;1021519;-72
2021/04/06 11:32:00;;;;;;;5.57;2.50;;;;;;;;;;763912;181;919408;-72
2021/04/06 11:34:26;;;;;;;4.00;2.00;;;;;;;;;;765401;180;1020419;-72
2021/04/06 11:36:52;;;;;;;3.57;2.07;;;;;;;;;;764855;180;919189;-74
2021/04/06 11:39:17;;;;;;;3.80;2.43;;;;;;;;;;769047;180;917146;-73
2021/04/06 11:41:44;;;;;;;7.97;3.13;;;;;;;;;;767016;180;763518;-75
2021/04/06 11:44:09;;;;;;;9.10;2.72;;;;;;;;;;761876;181;918612;-73
2021/04/06 11:46:35;;;;;;;3.77;2.70;;;;;;;;;;769780;180;919648;-72
2021/04/06 11:49:01;;;;;;;5.40;2.73;;;;;;;;;;762176;180;917732;-72
2021/04/06 11:51:27;;;;;;;7.20;2.63;;;;;;;;;;765928;180;922454;-73
2021/04/06 11:53:53;;;;;;;8.27;2.37;;;;;;;;;;774069;179;906201;-72
2021/04/06 11:56:19;;;;;;;5.90;2.83;;;;;;;;;;770352;181;918472;-73
2021/04/06 11:58:44;;;;;;;3.27;2.13;;;;;;;;;;765980;180;918778;-73
2021/04/06 12:01:10;;;;;;;6.70;3.13;;;;;;;;;;764805;180;918989;-73
2021/04/06 12:03:36;;;;;;;4.30;2.23;;;;;;;;;;771078;180;919143;-73
2021/04/06 12:06:02;;;;;;;10.10;2.87;;;;;;;;;;772091;180;918618;-74
2021/04/06 12:08:28;;;;;;;4.90;2.03;;;;;;;;;;769598;180;944317;-72
2021/04/06 12:10:54;;;;;;;3.13;1.80;;;;;;;;;;765741;180;918768;-72
2021/04/06 12:13:20;;;;;;;4.07;2.53;;;;;;;;;;760990;181;921064;-74
2021/04/06 12:15:46;;;;;;;7.10;3.17;;;;;;;;;;758617;181;1799558;-72
2021/04/06 12:18:12;;;;;;;4.67;1.80;;;;;;;;;;772533;180;918131;-74
2021/04/06 12:20:38;;;;;;;4.67;2.30;;;;;;;;;;765839;180;918281;-74
2021/04/06 12:23:04;;;;;;;11.07;2.78;;;;;;;;;;766338;180;927293;-73
2021/04/06 12:25:30;;;;;;;3.87;2.30;;;;;;;;;;763082;180;918564;-72
2021/04/06 12:27:56;;;;;;;5.17;2.77;;;;;;;;;;772553;180;917738;-73
2021/04/06 12:30:22;;;;;;;3.13;2.03;;;;;;;;;;765080;180;919302;-73
2021/04/06 12:32:48;;;;;;;4.53;2.45;;;;;;;;;;766671;180;919453;-74
2021/04/06 12:35:14;;;;;;;6.90;2.77;;;;;;;;;;769138;181;920095;-73
2021/04/06 12:37:40;;;;;;;6.25;2.62;;;;;;;;;;763505;181;916525;-74
2021/04/06 12:40:07;;;;;;;4.27;2.60;;;;;;;;;;765333;180;1025942;-73
2021/04/06 12:42:33;;;;;;;5.17;2.40;;;;;;;;;;773412;180;916109;-72
2021/04/06 12:45:00;;;;;;;10.97;2.43;;;;;;;;;;768300;180;915197;-77
2021/04/06 12:47:26;;;;;;;7.33;2.80;;;;;;;;;;768295;180;919063;-73
2021/04/06 12:49:51;;;;;;;7.20;2.90;;;;;;;;;;767750;180;918939;-74
2021/04/06 12:52:18;;;;;;;5.70;2.47;;;;;;;;;;769196;180;917925;-74
2021/04/06 12:54:43;;;;;;;4.17;2.07;;;;;;;;;;768667;180;919032;-74
2021/04/06 12:57:09;;;;;;;9.35;2.62;;;;;;;;;;766484;180;912700;-75
2021/04/06 12:59:35;;;;;;;3.63;2.40;;;;;;;;;;769584;180;917196;-73
2021/04/06 13:02:01;;;;;;;6.60;2.00;;;;;;;;;;762672;180;918026;-74
2021/04/06 13:04:27;;;;;;;4.50;2.57;;;;;;;;;;767642;179;919141;-74
2021/04/06 13:06:55;;;;;;;7.50;2.80;;;;;;;;;;771240;180;892106;-73
2021/04/06 13:09:19;;;;;;;6.43;3.07;;;;;;;;;;769054;180;917472;-74
2021/04/06 13:11:45;;;;;;;5.53;1.87;;;;;;;;;;766159;180;919119;-74
2021/04/06 13:14:11;;;;;;;4.90;2.53;;;;;;;;;;770914;180;625563;-74
2021/04/06 13:16:37;;;;;;;4.43;2.33;;;;;;;;;;765160;181;627330;-73
2021/04/06 13:19:03;;;;;;;4.43;2.47;;;;;;;;;;774509;180;652317;-75
2021/04/06 13:21:29;;;;;;;5.12;2.78;;;;;;;;;;767437;180;812761;-75
2021/04/06 13:23:55;;;;;;;3.57;1.90;;;;;;;;;;768874;181;880970;-74
2021/04/06 13:26:21;;;;;;;5.40;2.77;;;;;;;;;;765498;180;919586;-73
2021/04/06 13:28:46;;;;;;;4.83;2.10;;;;;;;;;;765968;180;936076;-73
2021/04/06 13:31:12;;;;;;;3.33;2.37;;;;;;;;;;771789;180;918816;-73
2021/04/06 13:33:38;;;;;;;3.40;2.27;;;;;;;;;;764732;180;916756;-73
2021/04/06 13:36:04;;;;;;;4.05;2.65;;;;;;;;;;770431;180;1017625;-73
2021/04/06 13:38:30;;;;;;;12.13;2.80;;;;;;;;;;768626;180;914801;-73
2021/04/06 13:40:56;;;;;;;6.00;2.77;;;;;;;;;;756866;181;919450;-73
2021/04/06 13:43:22;;;;;;;4.70;1.80;;;;;;;;;;762621;179;914699;-72
2021/04/06 13:45:48;;;;;;;3.03;2.00;;;;;;;;;;766102;180;844229;-75
2021/04/06 13:48:14;;;;;;;4.43;2.37;;;;;;;;;;768740;180;1019493;-74
2021/04/06 13:50:40;;;;;;;4.37;2.20;;;;;;;;;;765203;180;924270;-73
2021/04/06 13:53:06;;;;;;;3.10;1.93;;;;;;;;;;768056;180;805358;-75
2021/04/06 13:55:32;;;;;;;4.45;2.78;;;;;;;;;;771419;180;918624;-74
2021/04/06 13:57:58;;;;;;;3.23;2.40;;;;;;;;;;766178;180;918076;-72
2021/04/06 14:00:24;;;;;;;3.47;2.40;;;;;;;;;;767380;180;920959;-72
2021/04/06 14:02:50;;;;;;;5.00;2.90;;;;;;;;;;770450;180;905367;-73
2021/04/06 14:05:16;;;;;;;7.00;3.17;;;;;;;;;;760303;180;916486;-72
2021/04/06 14:07:42;;;;;;;8.37;2.77;;;;;;;;;;764014;180;916163;-75
2021/04/06 14:10:08;;;;;;;5.30;3.30;;;;;;;;;;766370;180;919053;-75
2021/04/06 14:12:34;;;;;;;6.13;3.30;;;;;;;;;;764210;183;964903;-73
2021/04/06 14:15:00;;;;;;;6.90;3.40;;;;;;;;;;765217;179;952660;-74
2021/04/06 14:17:25;;;;;;;9.00;3.00;;;;;;;;;;770311;180;923861;-71
2021/04/06 14:19:52;;;;;;;8.10;2.73;;;;;;;;;;771232;180;919200;-73
2021/04/06 14:22:18;;;;;;;3.90;2.70;;;;;;;;;;765914;180;919057;-72